createdAt,value
2023-05-14T00:00:28.281Z,100966.41
2023-05-14T00:02:58.678Z,100970.78
2023-05-14T00:05:29.430Z,100965.19
2023-05-14T00:07:59.853Z,100954.16
2023-05-14T00:10:32.690Z,100954.09
2023-05-14T00:13:03.948Z,100956.28
2023-05-14T00:15:34.621Z,100957.69
2023-05-14T00:18:05.240Z,100930.16
2023-05-14T00:20:35.890Z,100961.88
2023-05-14T00:23:12.493Z,100949.31
2023-05-14T00:25:46.422Z,100944.56
2023-05-14T00:28:16.724Z,100950.56
2023-05-14T00:30:47.234Z,100935.81
2023-05-14T00:33:19.605Z,100946.94
2023-05-14T00:35:50.148Z,100952.13
2023-05-14T00:38:24.373Z,100962.69
2023-05-14T00:40:57.757Z,100951.88
2023-05-14T00:43:28.493Z,100925.91
2023-05-14T00:45:59.184Z,100943.69
2023-05-14T00:48:32.169Z,100947.47
2023-05-14T00:51:03.031Z,100937.31
2023-05-14T00:53:33.912Z,100950.34
2023-05-14T00:56:08.627Z,100949.81
2023-05-14T00:58:39.194Z,100941.06
2023-05-14T01:01:12.475Z,100943.66
2023-05-14T01:03:43.165Z,100932.72
2023-05-14T01:06:20.695Z,100935.72
2023-05-14T01:09:00.077Z,100933.66
2023-05-14T01:11:39.764Z,100936.13
2023-05-14T01:14:23.053Z,100913.63
2023-05-14T01:16:58.754Z,100929.81
2023-05-14T01:19:49.181Z,100914.91
2023-05-14T01:22:22.452Z,100918.72
2023-05-14T01:24:52.905Z,100913.53
2023-05-14T01:27:33.183Z,100923.72
2023-05-14T01:30:13.371Z,100919.44
2023-05-14T01:32:45.110Z,100913.06
2023-05-14T01:35:16.176Z,100920.00
2023-05-14T01:37:50.883Z,100920.59
2023-05-14T01:40:22.601Z,100918.47
2023-05-14T01:42:54.476Z,100907.69
2023-05-14T01:45:25.629Z,100897.78
2023-05-14T01:47:56.880Z,100882.47
2023-05-14T01:50:27.003Z,100902.47
2023-05-14T01:53:02.937Z,100892.78
2023-05-14T01:55:33.329Z,100872.78
2023-05-14T01:58:03.838Z,100906.31
2023-05-14T02:00:35.050Z,100894.53
2023-05-14T02:03:05.347Z,100900.22
2023-05-14T02:05:38.727Z,100899.50
2023-05-14T02:08:11.942Z,100886.63
2023-05-14T02:10:42.360Z,100891.47
2023-05-14T02:13:12.685Z,100891.41
2023-05-14T02:15:43.001Z,100891.94
2023-05-14T02:18:13.471Z,100875.47
2023-05-14T02:20:46.692Z,100869.56
2023-05-14T02:23:25.659Z,100861.28
2023-05-14T02:26:01.820Z,100873.13
2023-05-14T02:28:32.811Z,100873.34
2023-05-14T02:31:03.484Z,100836.66
2023-05-14T02:33:34.090Z,100861.75
2023-05-14T02:36:04.439Z,100868.53
2023-05-14T02:38:40.982Z,100869.41
2023-05-14T02:41:11.588Z,100857.94
2023-05-14T02:43:41.997Z,100856.56
2023-05-14T02:46:12.437Z,100856.09
2023-05-14T02:48:42.854Z,100832.84
2023-05-14T02:51:13.545Z,100849.91
2023-05-14T02:53:48.967Z,100838.91
2023-05-14T02:56:19.752Z,100844.84
2023-05-14T02:58:50.190Z,100838.34
2023-05-14T03:01:21.304Z,100825.47
2023-05-14T03:03:52.832Z,100821.16
2023-05-14T03:06:22.768Z,100834.06
2023-05-14T03:08:55.817Z,100811.56
2023-05-14T03:11:26.598Z,100838.13
2023-05-14T03:13:57.052Z,100827.34
2023-05-14T03:16:27.324Z,100816.38
2023-05-14T03:18:57.913Z,100833.78
2023-05-14T03:21:28.192Z,100828.16
2023-05-14T03:24:04.231Z,100828.72
2023-05-14T03:26:34.400Z,100832.00
2023-05-14T03:29:05.606Z,100837.38
2023-05-14T03:31:35.840Z,100821.25
2023-05-14T03:34:06.211Z,100806.22
2023-05-14T03:36:38.123Z,100820.13
2023-05-14T03:39:11.358Z,100818.53
2023-05-14T03:41:41.954Z,100818.03
2023-05-14T03:44:12.380Z,100822.53
2023-05-14T03:46:42.631Z,100838.94
2023-05-14T03:49:13.009Z,100829.25
2023-05-14T03:51:43.783Z,100826.00
2023-05-14T03:54:16.578Z,100796.25
2023-05-14T03:56:49.256Z,100823.81
2023-05-14T03:59:19.474Z,100823.81
2023-05-14T04:01:49.681Z,100831.91
2023-05-14T04:04:19.996Z,100788.19
2023-05-14T04:06:50.265Z,100834.84
2023-05-14T04:09:23.692Z,100829.16
2023-05-14T04:11:55.930Z,100826.47
2023-05-14T04:14:26.418Z,100821.56
2023-05-14T04:16:57.464Z,100837.22
2023-05-14T04:19:28.745Z,100801.78
2023-05-14T04:21:58.924Z,100822.47
2023-05-14T04:24:31.828Z,100822.16
2023-05-14T04:27:03.604Z,100816.28
2023-05-14T04:29:34.262Z,100814.16
2023-05-14T04:32:05.193Z,100819.78
2023-05-14T04:34:35.118Z,100821.47
2023-05-14T04:37:05.750Z,100811.84
2023-05-14T04:39:38.624Z,100817.50
2023-05-14T04:42:10.128Z,100788.53
2023-05-14T04:44:40.814Z,100815.63
2023-05-14T04:47:10.993Z,100803.47
2023-05-14T04:49:41.298Z,100799.22
2023-05-14T04:52:11.475Z,100796.34
2023-05-14T04:54:47.237Z,100792.03
2023-05-14T04:57:18.202Z,100806.31
2023-05-14T04:59:48.590Z,100780.22
2023-05-14T05:02:18.925Z,100812.75
2023-05-14T05:04:49.671Z,100816.50
2023-05-14T05:07:20.047Z,100804.13
2023-05-14T05:09:53.171Z,100812.72
2023-05-14T05:12:24.780Z,100807.91
2023-05-14T05:14:55.004Z,100785.84
2023-05-14T05:17:25.467Z,100805.69
2023-05-14T05:19:55.696Z,100808.16
2023-05-14T05:22:26.461Z,100800.91
2023-05-14T05:25:01.344Z,100809.81
2023-05-14T05:27:31.604Z,100797.63
2023-05-14T05:30:01.845Z,100801.38
2023-05-14T05:32:32.412Z,100793.06
2023-05-14T05:35:02.838Z,100801.88
2023-05-14T05:37:33.583Z,100805.09
2023-05-14T05:40:07.332Z,100799.72
2023-05-14T05:42:37.591Z,100793.78
2023-05-14T05:45:09.535Z,100797.53
2023-05-14T05:47:40.075Z,100783.56
2023-05-14T05:50:12.465Z,100787.63
2023-05-14T05:52:42.802Z,100788.94
2023-05-14T05:55:19.660Z,100774.38
2023-05-14T05:57:50.097Z,100776.31
2023-05-14T06:00:21.502Z,100774.16
2023-05-14T06:02:52.601Z,100763.88
2023-05-14T06:05:22.856Z,100745.63
2023-05-14T06:07:53.771Z,100760.69
2023-05-14T06:10:27.785Z,100759.56
2023-05-14T06:13:00.423Z,100745.28
2023-05-14T06:15:30.986Z,100740.09
2023-05-14T06:18:01.576Z,100742.44
2023-05-14T06:20:32.993Z,100742.59
2023-05-14T06:23:03.917Z,100731.56
2023-05-14T06:25:37.228Z,100743.94
2023-05-14T06:28:07.887Z,100732.63
2023-05-14T06:30:38.073Z,100746.41
2023-05-14T06:33:08.605Z,100740.78
2023-05-14T06:35:41.683Z,100741.22
2023-05-14T06:38:12.564Z,100735.84
2023-05-14T06:40:45.841Z,100740.16
2023-05-14T06:43:16.057Z,100737.97
2023-05-14T06:45:46.322Z,100736.94
2023-05-14T06:48:27.556Z,100726.69
2023-05-14T06:50:58.659Z,100728.50
2023-05-14T06:53:28.888Z,100721.78
2023-05-14T06:56:02.182Z,100717.47
2023-05-14T06:58:32.537Z,100712.63
2023-05-14T07:01:03.866Z,100712.09
2023-05-14T07:03:34.370Z,100707.06
2023-05-14T07:06:04.918Z,100702.50
2023-05-14T07:08:35.914Z,100697.75
2023-05-14T07:11:09.063Z,100697.22
2023-05-14T07:13:39.532Z,100716.53
2023-05-14T07:16:11.411Z,100720.75
2023-05-14T07:18:42.354Z,100695.50
2023-05-14T07:21:12.763Z,100721.22
2023-05-14T07:23:42.888Z,100717.38
2023-05-14T07:26:15.802Z,100708.75
2023-05-14T07:28:49.121Z,100706.88
2023-05-14T07:31:19.855Z,100709.56
2023-05-14T07:33:50.638Z,100710.53
2023-05-14T07:36:21.399Z,100704.56
2023-05-14T07:38:51.884Z,100709.09
2023-05-14T07:41:27.813Z,100700.56
2023-05-14T07:43:58.393Z,100697.00
2023-05-14T07:46:29.317Z,100681.63
2023-05-14T07:48:59.488Z,100674.84
2023-05-14T07:51:30.684Z,100700.31
2023-05-14T07:54:01.017Z,100678.19
2023-05-14T07:56:34.780Z,100662.47
2023-05-14T07:59:05.966Z,100666.94
2023-05-14T08:01:39.083Z,100689.56
2023-05-14T08:04:12.054Z,100686.50
2023-05-14T08:06:42.636Z,100687.72
2023-05-14T08:09:20.536Z,100682.03
2023-05-14T08:11:56.823Z,100686.44
2023-05-14T08:14:30.013Z,100691.28
2023-05-14T08:17:00.784Z,100661.25
2023-05-14T08:19:33.700Z,100671.50
2023-05-14T08:22:04.505Z,100626.97
2023-05-14T08:24:38.850Z,100653.19
2023-05-14T08:27:12.367Z,100643.56
2023-05-14T08:29:42.679Z,100659.03
2023-05-14T08:32:22.884Z,100660.72
2023-05-14T08:34:54.784Z,100642.09
2023-05-14T08:37:25.344Z,100642.31
2023-05-14T08:39:57.136Z,100626.03
2023-05-14T08:42:31.775Z,100602.69
2023-05-14T08:45:04.851Z,100578.31
2023-05-14T08:47:37.492Z,100613.38
2023-05-14T08:50:09.955Z,100604.09
2023-05-14T08:52:41.250Z,100595.91
2023-05-14T08:55:12.889Z,100569.66
2023-05-14T08:57:48.845Z,100616.81
2023-05-14T09:00:19.775Z,100613.22
2023-05-14T09:02:51.102Z,100626.41
2023-05-14T09:05:22.653Z,100618.09
2023-05-14T09:07:53.305Z,100624.22
2023-05-14T09:10:24.261Z,100615.59
2023-05-14T09:12:57.462Z,100621.94
2023-05-14T09:15:31.091Z,100584.31
2023-05-14T09:18:01.416Z,100604.13
2023-05-14T09:20:32.026Z,100587.00
2023-05-14T09:23:05.403Z,100584.13
2023-05-14T09:25:36.264Z,100595.84
2023-05-14T09:28:12.527Z,100588.03
2023-05-14T09:30:42.962Z,100596.44
2023-05-14T09:33:13.732Z,100615.03
2023-05-14T09:35:44.816Z,100602.88
2023-05-14T09:38:14.999Z,100592.34
2023-05-14T09:40:45.397Z,100579.88
2023-05-14T09:43:19.170Z,100559.13
2023-05-14T09:45:50.345Z,100564.03
2023-05-14T09:48:20.991Z,100575.06
2023-05-14T09:50:52.592Z,100574.78
2023-05-14T09:53:22.936Z,100576.41
2023-05-14T09:55:53.141Z,100573.69
2023-05-14T09:58:27.104Z,100561.47
2023-05-14T10:01:02.969Z,100537.03
2023-05-14T10:03:34.346Z,100555.03
2023-05-14T10:06:13.176Z,100543.13
2023-05-14T10:08:50.675Z,100533.75
2023-05-14T10:11:25.595Z,100540.66
2023-05-14T10:14:06.045Z,100538.78
2023-05-14T10:16:41.044Z,100524.09
2023-05-14T10:19:13.623Z,100551.41
2023-05-14T10:21:47.619Z,100548.38
2023-05-14T10:24:18.814Z,100536.41
2023-05-14T10:26:50.064Z,100541.31
2023-05-14T10:29:23.089Z,100541.16
2023-05-14T10:31:54.515Z,100546.59
2023-05-14T10:34:41.388Z,100553.63
2023-05-14T10:37:13.894Z,100534.00
2023-05-14T10:39:54.925Z,100506.84
2023-05-14T10:42:27.689Z,100515.00
2023-05-14T10:45:06.082Z,100501.59
2023-05-14T10:47:38.079Z,100480.34
2023-05-14T10:50:11.564Z,100494.41
2023-05-14T10:52:43.921Z,100487.22
2023-05-14T10:55:17.940Z,100495.06
2023-05-14T10:57:49.309Z,100495.06
2023-05-14T11:00:24.969Z,100490.41
2023-05-14T11:02:59.939Z,100486.88
2023-05-14T11:05:30.274Z,100483.66
2023-05-14T11:08:01.674Z,100477.69
2023-05-14T11:10:34.702Z,100472.56
2023-05-14T11:13:07.522Z,100442.72
2023-05-14T11:15:47.403Z,100430.47
2023-05-14T11:18:29.002Z,100466.06
2023-05-14T11:21:02.940Z,100435.84
2023-05-14T11:23:33.596Z,100452.66
2023-05-14T11:26:03.991Z,100407.72
2023-05-14T11:28:34.803Z,100418.06
2023-05-14T11:31:08.941Z,100419.34
2023-05-14T11:33:39.477Z,100399.63
2023-05-14T11:36:11.072Z,100415.50
2023-05-14T11:38:52.880Z,100422.44
2023-05-14T11:41:24.048Z,100413.44
2023-05-14T11:43:54.497Z,100422.72
2023-05-14T11:46:28.816Z,100430.84
2023-05-14T11:48:59.074Z,100431.97
2023-05-14T11:51:30.572Z,100419.94
2023-05-14T11:54:01.258Z,100415.88
2023-05-14T11:56:31.439Z,100417.44
2023-05-14T11:59:02.394Z,100419.84
2023-05-14T12:01:38.794Z,100436.56
2023-05-14T12:04:09.953Z,100425.41
2023-05-14T12:06:42.881Z,100413.25
2023-05-14T12:09:16.656Z,100384.41
2023-05-14T12:11:48.205Z,100413.81
2023-05-14T12:14:20.719Z,100406.88
2023-05-14T12:16:54.448Z,100405.88
2023-05-14T12:19:26.288Z,100405.91
2023-05-14T12:21:57.040Z,100408.50
2023-05-14T12:24:29.703Z,100400.91
2023-05-14T12:27:00.793Z,100403.31
2023-05-14T12:29:37.318Z,100391.97
2023-05-14T12:32:14.333Z,100383.38
2023-05-14T12:34:44.680Z,100362.63
2023-05-14T12:37:15.268Z,100372.69
2023-05-14T12:39:45.500Z,100357.84
2023-05-14T12:42:16.325Z,100353.13
2023-05-14T12:44:46.429Z,100345.09
2023-05-14T12:47:22.645Z,100335.97
2023-05-14T12:49:53.727Z,100330.97
2023-05-14T12:52:36.773Z,100347.09
2023-05-14T12:55:09.947Z,100354.94
2023-05-14T12:57:40.738Z,100337.13
2023-05-14T13:00:21.265Z,100342.38
2023-05-14T13:02:55.679Z,100350.13
2023-05-14T13:05:26.500Z,100341.88
2023-05-14T13:07:56.746Z,100357.41
2023-05-14T13:10:27.022Z,100362.03
2023-05-14T13:13:00.642Z,100350.34
2023-05-14T13:15:33.896Z,100339.50
2023-05-14T13:18:07.098Z,100295.94
2023-05-14T13:20:38.093Z,100320.69
2023-05-14T13:23:08.003Z,100320.28
2023-05-14T13:25:41.536Z,100320.38
2023-05-14T13:28:12.211Z,100337.41
2023-05-14T13:30:42.682Z,100324.00
2023-05-14T13:33:16.427Z,100302.56
2023-05-14T13:35:47.451Z,100316.44
2023-05-14T13:38:17.895Z,100317.50
2023-05-14T13:40:48.646Z,100317.19
2023-05-14T13:43:19.595Z,100291.84
2023-05-14T13:45:49.965Z,100306.13
2023-05-14T13:48:22.785Z,100302.88
2023-05-14T13:50:53.245Z,100313.38
2023-05-14T13:53:24.774Z,100303.53
2023-05-14T13:55:59.022Z,100292.69
2023-05-14T13:58:29.866Z,100278.31
2023-05-14T14:01:00.158Z,100303.69
2023-05-14T14:03:33.460Z,100291.88
2023-05-14T14:06:04.018Z,100276.91
2023-05-14T14:08:34.316Z,100303.44
2023-05-14T14:11:05.071Z,100305.63
2023-05-14T14:13:35.227Z,100291.00
2023-05-14T14:16:06.575Z,100285.19
2023-05-14T14:18:40.498Z,100287.41
2023-05-14T14:21:11.081Z,100298.16
2023-05-14T14:23:42.344Z,100271.25
2023-05-14T14:26:12.800Z,100309.59
2023-05-14T14:28:43.685Z,100303.66
2023-05-14T14:31:16.826Z,100296.41
2023-05-14T14:33:51.486Z,100287.88
2023-05-14T14:36:22.278Z,100324.06
2023-05-14T14:38:52.505Z,100297.16
2023-05-14T14:41:23.244Z,100323.50
2023-05-14T14:43:53.759Z,100322.06
2023-05-14T14:46:26.552Z,100297.34
2023-05-14T14:49:02.299Z,100304.41
2023-05-14T14:51:33.325Z,100313.84
2023-05-14T14:54:07.703Z,100287.91
2023-05-14T14:56:38.500Z,100300.50
2023-05-14T14:59:08.527Z,100312.34
2023-05-14T15:01:41.202Z,100300.38
2023-05-14T15:04:14.330Z,100289.81
2023-05-14T15:06:44.659Z,100266.38
2023-05-14T15:09:14.843Z,100284.00
2023-05-14T15:11:45.367Z,100279.34
2023-05-14T15:14:16.134Z,100304.16
2023-05-14T15:16:51.043Z,100261.13
2023-05-14T15:19:24.420Z,100295.63
2023-05-14T15:21:55.132Z,100295.31
2023-05-14T15:24:26.936Z,100274.19
2023-05-14T15:26:57.209Z,100261.00
2023-05-14T15:29:27.607Z,100278.28
2023-05-14T15:31:58.914Z,100260.00
2023-05-14T15:34:32.299Z,100253.31
2023-05-14T15:37:02.900Z,100285.06
2023-05-14T15:39:33.748Z,100275.88
2023-05-14T15:42:06.694Z,100289.75
2023-05-14T15:44:39.039Z,100260.00
2023-05-14T15:47:09.886Z,100275.31
2023-05-14T15:49:42.644Z,100277.13
2023-05-14T15:52:12.880Z,100268.50
2023-05-14T15:54:43.845Z,100271.66
2023-05-14T15:57:14.443Z,100284.38
2023-05-14T15:59:45.321Z,100275.53
2023-05-14T16:02:16.075Z,100286.66
2023-05-14T16:04:50.004Z,100277.47
2023-05-14T16:07:21.022Z,100283.22
2023-05-14T16:09:52.444Z,100278.91
2023-05-14T16:12:22.896Z,100277.31
2023-05-14T16:14:57.320Z,100276.19
2023-05-14T16:17:27.585Z,100272.22
2023-05-14T16:20:01.429Z,100274.06
2023-05-14T16:22:33.671Z,100236.72
2023-05-14T16:25:05.267Z,100264.28
2023-05-14T16:27:36.855Z,100293.34
2023-05-14T16:30:08.008Z,100278.69
2023-05-14T16:32:38.650Z,100295.94
2023-05-14T16:35:13.038Z,100292.91
2023-05-14T16:37:43.206Z,100282.66
2023-05-14T16:40:16.560Z,100297.97
2023-05-14T16:42:49.248Z,100300.47
2023-05-14T16:45:19.784Z,100287.75
2023-05-14T16:47:52.962Z,100301.78
2023-05-14T16:50:26.565Z,100303.69
2023-05-14T16:52:57.152Z,100295.16
2023-05-14T16:55:27.772Z,100293.09
2023-05-14T16:57:58.349Z,100285.81
2023-05-14T17:00:31.130Z,100284.09
2023-05-14T17:03:02.633Z,100279.53
2023-05-14T17:05:35.701Z,100276.22
2023-05-14T17:08:06.144Z,100242.34
2023-05-14T17:10:36.520Z,100250.31
2023-05-14T17:13:06.740Z,100262.84
2023-05-14T17:15:40.503Z,100249.94
2023-05-14T17:18:12.309Z,100240.38
2023-05-14T17:20:45.451Z,100248.66
2023-05-14T17:23:16.165Z,100241.19
2023-05-14T17:25:46.577Z,100240.25
2023-05-14T17:28:16.789Z,100229.94
2023-05-14T17:30:49.552Z,100228.00
2023-05-14T17:33:20.154Z,100229.31
2023-05-14T17:35:52.997Z,100237.94
2023-05-14T17:38:23.649Z,100238.72
2023-05-14T17:40:54.624Z,100242.59
2023-05-14T17:43:26.836Z,100244.22
2023-05-14T17:45:57.357Z,100237.56
2023-05-14T17:48:27.880Z,100238.41
2023-05-14T17:51:00.998Z,100241.44
2023-05-14T17:53:31.491Z,100225.88
2023-05-14T17:56:02.128Z,100243.25
2023-05-14T17:58:32.747Z,100254.91
2023-05-14T18:01:06.252Z,100219.44
2023-05-14T18:03:37.088Z,100237.00
2023-05-14T18:06:10.220Z,100233.81
2023-05-14T18:08:41.809Z,100232.06
2023-05-14T18:11:12.384Z,100210.94
2023-05-14T18:13:42.720Z,100229.25
2023-05-14T18:16:13.522Z,100245.31
2023-05-14T18:18:44.456Z,100239.56
2023-05-14T18:21:18.031Z,100230.69
2023-05-14T18:23:51.172Z,100235.09
2023-05-14T18:26:23.610Z,100233.84
2023-05-14T18:28:54.783Z,100234.78
2023-05-14T18:31:28.084Z,100226.72
2023-05-14T18:33:58.990Z,100220.41
2023-05-14T18:36:33.809Z,100230.59
2023-05-14T18:39:04.279Z,100235.53
2023-05-14T18:41:34.533Z,100256.41
2023-05-14T18:44:05.195Z,100247.00
2023-05-14T18:46:35.548Z,100231.22
2023-05-14T18:49:05.815Z,100253.72
2023-05-14T18:51:40.369Z,100254.69
2023-05-14T18:54:11.524Z,100259.94
2023-05-14T18:56:46.771Z,100255.97
2023-05-14T18:59:18.089Z,100249.59
2023-05-14T19:01:51.636Z,100235.16
2023-05-14T19:04:22.104Z,100244.50
2023-05-14T19:06:55.921Z,100220.78
2023-05-14T19:09:27.081Z,100209.94
2023-05-14T19:11:57.820Z,100246.94
2023-05-14T19:14:31.376Z,100230.03
2023-05-14T19:17:01.903Z,100189.25
2023-05-14T19:19:32.226Z,100228.44
2023-05-14T19:22:05.980Z,100242.97
2023-05-14T19:24:40.845Z,100217.63
2023-05-14T19:27:14.031Z,100253.50
2023-05-14T19:29:44.704Z,100250.94
2023-05-14T19:32:14.868Z,100262.09
2023-05-14T19:34:45.426Z,100261.16
2023-05-14T19:37:18.265Z,100258.78
2023-05-14T19:39:50.330Z,100262.56
2023-05-14T19:42:21.110Z,100256.03
2023-05-14T19:44:51.664Z,100242.66
2023-05-14T19:47:21.940Z,100208.28
2023-05-14T19:49:53.903Z,100242.66
2023-05-14T19:52:29.383Z,100233.41
2023-05-14T19:55:00.137Z,100246.00
2023-05-14T19:57:31.527Z,100247.44
2023-05-14T20:00:03.028Z,100244.41
2023-05-14T20:02:44.160Z,100242.16
2023-05-14T20:05:15.766Z,100241.69
2023-05-14T20:07:49.567Z,100235.34
2023-05-14T20:10:20.415Z,100248.25
2023-05-14T20:12:52.984Z,100230.88
2023-05-14T20:15:23.694Z,100239.81
2023-05-14T20:17:54.228Z,100231.84
2023-05-14T20:20:29.708Z,100206.84
2023-05-14T20:23:05.241Z,100212.41
2023-05-14T20:25:36.174Z,100227.88
2023-05-14T20:28:06.711Z,100210.31
2023-05-14T20:30:37.059Z,100213.53
2023-05-14T20:33:07.734Z,100214.63
2023-05-14T20:35:38.330Z,100211.28
2023-05-14T20:38:13.015Z,100218.78
2023-05-14T20:40:44.716Z,100198.84
2023-05-14T20:43:14.911Z,100177.34
2023-05-14T20:45:45.599Z,100210.31
2023-05-14T20:48:17.834Z,100195.69
2023-05-14T20:50:48.715Z,100213.19
2023-05-14T20:53:21.895Z,100210.47
2023-05-14T20:55:52.590Z,100209.69
2023-05-14T20:58:23.872Z,100208.25
2023-05-14T21:00:56.008Z,100216.41
2023-05-14T21:03:31.575Z,100210.66
2023-05-14T21:06:03.201Z,100204.44
2023-05-14T21:08:39.717Z,100202.22
2023-05-14T21:11:10.661Z,100205.25
2023-05-14T21:13:41.528Z,100194.72
2023-05-14T21:16:12.996Z,100188.66
2023-05-14T21:18:43.369Z,100196.94
2023-05-14T21:21:13.892Z,100161.13
2023-05-14T21:23:46.918Z,100191.88
2023-05-14T21:26:17.156Z,100184.53
2023-05-14T21:28:49.665Z,100192.16
2023-05-14T21:31:20.154Z,100191.50
2023-05-14T21:33:51.393Z,100168.84
2023-05-14T21:36:21.894Z,100170.78
2023-05-14T21:38:55.813Z,100170.78
2023-05-14T21:41:29.631Z,100143.56
2023-05-14T21:43:59.811Z,100162.84
2023-05-14T21:46:30.334Z,100169.69
2023-05-14T21:49:00.605Z,100164.78
2023-05-14T21:51:32.411Z,100173.69
2023-05-14T21:54:07.585Z,100160.28
2023-05-14T21:56:39.275Z,100176.25
2023-05-14T21:59:09.517Z,100175.09
2023-05-14T22:01:56.152Z,100172.59
2023-05-14T22:04:30.775Z,100148.69
2023-05-14T22:07:00.995Z,100161.75
2023-05-14T22:09:33.849Z,100155.69
2023-05-14T22:12:04.155Z,100154.06
2023-05-14T22:14:34.418Z,100144.97
2023-05-14T22:17:04.974Z,100152.16
2023-05-14T22:19:35.187Z,100145.31
2023-05-14T22:22:18.232Z,100125.75
2023-05-14T22:24:51.670Z,100148.00
2023-05-14T22:27:22.128Z,100138.78
2023-05-14T22:29:52.625Z,100146.91
2023-05-14T22:32:23.062Z,100148.03
2023-05-14T22:34:56.473Z,100132.72
2023-05-14T22:37:27.395Z,100126.69
2023-05-14T22:40:02.881Z,100130.34
2023-05-14T22:42:33.292Z,100104.88
2023-05-14T22:45:03.827Z,100122.66
2023-05-14T22:47:34.202Z,100126.53
2023-05-14T22:50:07.953Z,100122.06
2023-05-14T22:52:38.848Z,100124.91
2023-05-14T22:55:13.021Z,100119.97
2023-05-14T22:57:43.436Z,100114.41
2023-05-14T23:00:17.800Z,100091.16
2023-05-14T23:02:48.431Z,100102.66
2023-05-14T23:05:18.858Z,100134.03
2023-05-14T23:07:49.708Z,100140.56
2023-05-14T23:10:25.759Z,100108.41
2023-05-14T23:12:57.619Z,100102.63
2023-05-14T23:15:28.120Z,100079.72
2023-05-14T23:17:58.695Z,100079.72
2023-05-14T23:20:29.141Z,100068.22
2023-05-14T23:22:59.336Z,100075.22
2023-05-14T23:25:32.426Z,100059.81
2023-05-14T23:28:03.386Z,100072.03
2023-05-14T23:30:33.832Z,100058.03
2023-05-14T23:33:04.148Z,100052.75
2023-05-14T23:35:34.427Z,100057.09
2023-05-14T23:38:04.801Z,100072.03
2023-05-14T23:40:38.051Z,100066.63
2023-05-14T23:43:08.852Z,100051.19
2023-05-14T23:45:39.207Z,100011.94
2023-05-14T23:48:09.868Z,100056.28
2023-05-14T23:50:40.383Z,100053.09
2023-05-14T23:53:10.725Z,100061.38
2023-05-14T23:55:43.647Z,100050.53
2023-05-14T23:58:16.364Z,100038.44
